Time;durP1;ratioP1;P1;durP2;ratioP2;P2;SDS_P1;SDS_P2;PMS_P1;PMS_P2;Temp;Humidity;BMP_temperature;BMP_pressure;BME280_temperature;BME280_humidity;BME280_pressure;Samples;Min_cycle;Max_cycle;Signal;HPM_P1;HPM_P2
2023/04/14 00:01:01;;;;;;;;;;;;;;;10.18;100.00;97224.59;4469157;32;20003;-64
2023/04/14 00:03:29;;;;;;;;;;;;;;;10.25;100.00;97207.19;4469441;32;19983;-64
2023/04/14 00:05:57;;;;;;;;;;;;;;;10.29;100.00;97213.72;4470299;32;19977;-64
2023/04/14 00:08:24;;;;;;;;;;;;;;;10.23;100.00;97214.41;4470604;32;20025;-64
2023/04/14 00:10:52;;;;;;;;;;;;;;;10.18;100.00;97222.00;4470754;32;20099;-64
2023/04/14 00:13:19;;;;;;;;;;;;;;;10.22;100.00;97215.41;4470407;32;20051;-64
2023/04/14 00:15:46;;;;;;;;;;;;;;;10.24;100.00;97211.63;4470620;32;19991;-64
2023/04/14 00:18:13;;;;;;;;;;;;;;;10.28;100.00;97227.81;4470271;32;20036;-64
2023/04/14 00:20:41;;;;;;;;;;;;;;;10.26;100.00;97227.16;4470499;32;20011;-64
2023/04/14 00:23:08;;;;;;;;;;;;;;;10.30;100.00;97225.84;4470560;32;20447;-64
2023/04/14 00:25:35;;;;;;;;;;;;;;;10.33;100.00;97225.50;4470252;32;19998;-64
2023/04/14 00:28:03;;;;;;;;;;;;;;;10.40;100.00;97226.47;4470489;32;20040;-64
2023/04/14 00:30:30;;;;;;;;;;;;;;;10.37;100.00;97226.81;4470213;32;20369;-64
2023/04/14 00:32:57;;;;;;;;;;;;;;;10.47;100.00;97222.12;4470336;32;20428;-64
2023/04/14 00:35:25;;;;;;;;;;;;;;;10.52;100.00;97228.66;4470242;32;19967;-64
2023/04/14 00:37:52;;;;;;;;;;;;;;;10.52;100.00;97219.00;4470203;32;20034;-64
2023/04/14 00:40:21;;;;;;;;;;;;;;;10.55;100.00;97217.84;4468986;32;19996;-64
2023/04/14 00:42:48;;;;;;;;;;;;;;;10.54;100.00;97217.03;4470101;32;20051;-64
2023/04/14 00:45:15;;;;;;;;;;;;;;;10.55;100.00;97223.06;4470045;32;20142;-64
2023/04/14 00:47:46;;;;;;;;;;;;;;;10.56;100.00;97222.91;4470153;32;20382;-64
2023/04/14 00:50:14;;;;;;;;;;;;;;;10.55;100.00;97210.81;4470304;32;19992;-64
2023/04/14 00:52:41;;;;;;;;;;;;;;;10.56;99.62;97214.22;4470138;32;19985;-64
2023/04/14 00:55:09;;;;;;;;;;;;;;;10.53;100.00;97204.09;4470105;32;20326;-64
2023/04/14 00:57:37;;;;;;;;;;;;;;;10.50;100.00;97207.09;4470002;32;19980;-64
2023/04/14 01:00:04;;;;;;;;;;;;;;;10.47;99.59;97176.81;4470368;32;20393;-64
2023/04/14 01:02:33;;;;;;;;;;;;;;;10.53;99.51;97181.34;4470123;32;19996;-64
2023/04/14 01:05:01;;;;;;;;;;;;;;;10.54;99.99;97184.81;4469590;32;20005;-64
2023/04/14 01:07:28;;;;;;;;;;;;;;;10.44;100.00;97175.34;4470044;32;19984;-64
2023/04/14 01:09:56;;;;;;;;;;;;;;;10.47;100.00;97153.25;4470067;32;20006;-64
2023/04/14 01:12:35;;;;;;;;;;;;;;;10.35;100.00;97141.56;4469677;32;20346;-64
2023/04/14 01:15:05;;;;;;;;;;;;;;;10.33;100.00;97139.12;4469990;32;20467;-64
2023/04/14 01:17:42;;;;;;;;;;;;;;;10.36;100.00;97124.91;4470122;32;20036;-64
2023/04/14 01:20:16;;;;;;;;;;;;;;;10.32;100.00;97129.63;4470101;32;19999;-64
2023/04/14 01:22:47;;;;;;;;;;;;;;;10.23;100.00;97128.06;4470156;32;20349;-64
2023/04/14 01:25:15;;;;;;;;;;;;;;;10.24;100.00;97116.59;4469998;32;19984;-64
2023/04/14 01:28:08;;;;;;;;;;;;;;;10.24;100.00;97106.13;4470048;32;20007;-64
2023/04/14 01:30:47;;;;;;;;;;;;;;;10.28;99.46;97100.38;4467581;32;20337;-64
2023/04/14 01:33:15;;;;;;;;;;;;;;;10.34;97.35;97111.97;4468805;32;19972;-64
2023/04/14 01:35:50;;;;;;;;;;;;;;;10.36;98.62;97123.06;4468409;32;20356;-64
2023/04/14 01:38:18;;;;;;;;;;;;;;;10.37;98.06;97123.88;4468576;32;20323;-64
2023/04/14 01:40:48;;;;;;;;;;;;;;;10.40;96.52;97116.50;4468549;32;19996;-64
2023/04/14 01:43:15;;;;;;;;;;;;;;;10.43;95.84;97113.53;4469668;32;20098;-64
2023/04/14 01:45:48;;;;;;;;;;;;;;;10.46;95.84;97115.81;4468663;32;19980;-64
2023/04/14 01:48:16;;;;;;;;;;;;;;;10.46;95.89;97110.56;4468825;32;20285;-64
2023/04/14 01:50:44;;;;;;;;;;;;;;;10.51;95.19;97106.56;4470171;32;19988;-64
2023/04/14 01:53:12;;;;;;;;;;;;;;;10.54;94.93;97111.50;4468544;32;20052;-64
2023/04/14 01:55:40;;;;;;;;;;;;;;;10.55;94.48;97103.47;4469748;32;19990;-64
2023/04/14 01:58:07;;;;;;;;;;;;;;;10.54;94.60;97064.34;4469924;32;20075;-64
2023/04/14 02:00:35;;;;;;;;;;;;;;;10.56;94.51;97067.59;4469852;32;20029;-64
2023/04/14 02:03:03;;;;;;;;;;;;;;;10.56;94.24;97075.47;4468561;32;20003;-64
2023/04/14 02:05:31;;;;;;;;;;;;;;;10.59;93.48;97069.84;4468109;32;19992;-64
2023/04/14 02:07:58;;;;;;;;;;;;;;;10.54;93.52;97075.63;4468084;32;19980;-64
2023/04/14 02:10:26;;;;;;;;;;;;;;;10.55;94.04;97076.44;4469559;32;20014;-64
2023/04/14 02:12:54;;;;;;;;;;;;;;;10.64;92.50;97093.69;4467807;32;20060;-64
2023/04/14 02:15:21;;;;;;;;;;;;;;;10.63;92.62;97090.28;4468323;32;19994;-64
2023/04/14 02:17:49;;;;;;;;;;;;;;;10.67;92.75;97103.81;4468349;32;19987;-64
2023/04/14 02:20:19;;;;;;;;;;;;;;;10.65;92.13;97097.94;4469641;32;20162;-64
2023/04/14 02:22:47;;;;;;;;;;;;;;;10.66;91.86;97104.81;4468145;32;19996;-64
2023/04/14 02:25:14;;;;;;;;;;;;;;;10.71;91.39;97114.75;4469488;32;19994;-64
2023/04/14 02:27:47;;;;;;;;;;;;;;;10.71;91.54;97089.37;4469347;32;20010;-64
2023/04/14 02:30:16;;;;;;;;;;;;;;;10.69;90.66;97112.31;4468068;32;19991;-64
2023/04/14 02:32:48;;;;;;;;;;;;;;;10.72;91.11;97117.19;4467995;32;20055;-64
2023/04/14 02:35:16;;;;;;;;;;;;;;;10.72;91.11;97119.00;4468013;32;19987;-64
2023/04/14 02:37:46;;;;;;;;;;;;;;;10.66;91.24;97083.88;4467802;32;20329;-64
2023/04/14 02:40:17;;;;;;;;;;;;;;;10.72;90.96;97103.28;4468038;32;20033;-64
2023/04/14 02:42:47;;;;;;;;;;;;;;;10.71;89.78;97101.66;4467986;32;19994;-64
2023/04/14 02:45:17;;;;;;;;;;;;;;;10.73;89.84;97104.91;4469598;32;19984;-64
2023/04/14 02:47:46;;;;;;;;;;;;;;;10.77;90.08;97101.75;4469004;32;19998;-64
2023/04/14 02:50:14;;;;;;;;;;;;;;;10.72;90.18;97093.62;4468196;32;20011;-64
2023/04/14 02:52:42;;;;;;;;;;;;;;;10.78;90.06;97092.91;4468000;32;19984;-64
2023/04/14 02:55:10;;;;;;;;;;;;;;;10.80;90.90;97101.38;4468069;32;20002;-64
2023/04/14 02:57:38;;;;;;;;;;;;;;;10.74;90.86;97081.16;4467945;32;19991;-64
2023/04/14 03:00:05;;;;;;;;;;;;;;;10.77;91.38;97080.78;4469236;32;20459;-64
2023/04/14 03:02:34;;;;;;;;;;;;;;;10.74;90.92;97070.69;4469221;32;19991;-64
2023/04/14 03:05:02;;;;;;;;;;;;;;;10.72;91.11;97064.81;4469000;32;20482;-64
2023/04/14 03:07:30;;;;;;;;;;;;;;;10.72;91.20;97066.59;4467882;32;19988;-64
2023/04/14 03:09:58;;;;;;;;;;;;;;;10.70;90.52;97079.88;4469205;32;20014;-64
2023/04/14 03:12:25;;;;;;;;;;;;;;;10.71;92.04;97068.41;4467238;32;20051;-64
2023/04/14 03:14:52;;;;;;;;;;;;;;;10.72;91.60;97074.47;4467817;32;20302;-64
2023/04/14 03:17:20;;;;;;;;;;;;;;;10.73;91.81;97063.81;4468702;32;19999;-64
2023/04/14 03:19:48;;;;;;;;;;;;;;;10.66;91.81;97057.69;4468802;32;19980;-64
2023/04/14 03:22:16;;;;;;;;;;;;;;;10.67;92.25;97046.19;4468705;32;19984;-64
2023/04/14 03:24:44;;;;;;;;;;;;;;;10.56;93.56;97044.03;4467469;32;19999;-64
2023/04/14 03:27:17;;;;;;;;;;;;;;;10.50;96.01;97060.47;4468635;32;19988;-64
2023/04/14 03:29:46;;;;;;;;;;;;;;;10.53;96.65;97079.22;4469526;32;20007;-64
2023/04/14 03:32:13;;;;;;;;;;;;;;;10.54;96.44;97080.06;4470810;32;20441;-64
2023/04/14 03:34:40;;;;;;;;;;;;;;;10.56;94.97;97088.53;4470831;32;20322;-64
2023/04/14 03:37:08;;;;;;;;;;;;;;;10.47;96.74;97091.22;4469684;32;20305;-64
2023/04/14 03:39:37;;;;;;;;;;;;;;;10.54;96.54;97095.78;4469858;32;20671;-64
2023/04/14 03:42:06;;;;;;;;;;;;;;;10.56;96.04;97099.03;4470744;32;20342;-64
2023/04/14 03:44:36;;;;;;;;;;;;;;;10.58;96.68;97129.28;4470939;32;20389;-64
2023/04/14 03:47:06;;;;;;;;;;;;;;;10.62;96.35;97140.22;4469341;32;20343;-64
2023/04/14 03:49:36;;;;;;;;;;;;;;;10.62;97.41;97141.00;4469626;32;19991;-64
2023/04/14 03:52:06;;;;;;;;;;;;;;;10.64;97.85;97135.59;4469394;32;20074;-64
2023/04/14 03:54:35;;;;;;;;;;;;;;;10.58;99.08;97145.00;4469266;32;20322;-64
2023/04/14 03:57:05;;;;;;;;;;;;;;;10.55;99.72;97144.50;4469576;32;19984;-64
2023/04/14 03:59:32;;;;;;;;;;;;;;;10.52;100.00;97137.81;4470708;32;20043;-64
2023/04/14 04:02:01;;;;;;;;;;;;;;;10.54;99.90;97137.66;4470473;32;20416;-64
2023/04/14 04:04:29;;;;;;;;;;;;;;;10.47;100.00;97127.87;4470415;32;20353;-64
2023/04/14 04:06:57;;;;;;;;;;;;;;;10.45;100.00;97118.59;4470281;32;20019;-64
2023/04/14 04:09:25;;;;;;;;;;;;;;;10.36;100.00;97104.75;4470736;32;20402;-64
2023/04/14 04:11:52;;;;;;;;;;;;;;;10.36;100.00;97104.75;4468445;32;19976;-64
2023/04/14 04:14:21;;;;;;;;;;;;;;;10.33;100.00;97102.50;4469186;32;19964;-64
2023/04/14 04:16:48;;;;;;;;;;;;;;;10.35;100.00;97105.75;4469383;32;19976;-64
2023/04/14 04:19:20;;;;;;;;;;;;;;;10.36;100.00;97098.72;4469022;32;20017;-64
2023/04/14 04:21:48;;;;;;;;;;;;;;;10.38;100.00;97102.75;4468960;32;19984;-64
2023/04/14 04:24:17;;;;;;;;;;;;;;;10.24;100.00;97085.22;4469850;32;20025;-64
2023/04/14 04:26:45;;;;;;;;;;;;;;;10.35;100.00;97081.37;4469229;32;19991;-64
2023/04/14 04:29:12;;;;;;;;;;;;;;;10.29;100.00;97072.38;4470456;32;20000;-64
2023/04/14 04:31:39;;;;;;;;;;;;;;;10.29;100.00;97068.00;4469347;32;19972;-64
2023/04/14 04:34:07;;;;;;;;;;;;;;;10.27;100.00;97069.16;4468094;32;20045;-64
2023/04/14 04:36:35;;;;;;;;;;;;;;;10.29;100.00;97064.53;4469180;32;20313;-64
2023/04/14 04:39:03;;;;;;;;;;;;;;;10.38;100.00;97073.97;4469536;32;20002;-64
2023/04/14 04:41:32;;;;;;;;;;;;;;;10.40;100.00;97079.84;4470403;32;20067;-64
2023/04/14 04:44:00;;;;;;;;;;;;;;;10.43;100.00;97079.50;4470090;32;19988;-64
2023/04/14 04:46:46;;;;;;;;;;;;;;;10.39;100.00;97091.31;4468793;32;20031;-64
2023/04/14 04:49:14;;;;;;;;;;;;;;;10.43;100.00;97092.59;4470112;32;19980;-64
2023/04/14 04:51:42;;;;;;;;;;;;;;;10.38;100.00;97091.50;4469453;32;19984;-64
2023/04/14 04:54:09;;;;;;;;;;;;;;;10.36;100.00;97083.00;4469939;32;19991;-64
2023/04/14 04:56:37;;;;;;;;;;;;;;;10.37;100.00;97095.09;4470230;32;19976;-64
2023/04/14 04:59:05;;;;;;;;;;;;;;;10.44;100.00;97091.59;4469652;32;19976;-63
2023/04/14 05:01:32;;;;;;;;;;;;;;;10.50;100.00;97104.97;4465931;32;20025;-64
2023/04/14 05:04:00;;;;;;;;;;;;;;;10.52;100.00;97116.06;4470806;31;19988;-64
2023/04/14 05:06:28;;;;;;;;;;;;;;;10.47;99.99;97116.59;4467280;32;20041;-64
2023/04/14 05:08:55;;;;;;;;;;;;;;;10.53;99.72;97122.94;4465995;32;20035;-64
2023/04/14 05:11:22;;;;;;;;;;;;;;;10.59;99.18;97120.41;4462661;32;19984;-64
2023/04/14 05:13:50;;;;;;;;;;;;;;;10.73;98.21;97118.00;4466911;32;20023;-64
2023/04/14 05:16:18;;;;;;;;;;;;;;;10.69;98.72;97114.09;4477822;32;20003;-64
2023/04/14 05:18:45;;;;;;;;;;;;;;;10.64;98.20;97112.84;4470026;32;19992;-64
2023/04/14 05:21:13;;;;;;;;;;;;;;;10.60;98.09;97116.00;4468538;32;19975;-64
2023/04/14 05:23:42;;;;;;;;;;;;;;;10.57;98.86;97113.75;4467936;32;20039;-64
2023/04/14 05:26:11;;;;;;;;;;;;;;;10.66;98.28;97115.28;4466993;32;19996;-64
2023/04/14 05:28:42;;;;;;;;;;;;;;;10.63;98.08;97111.22;4473565;32;20341;-64
2023/04/14 05:31:09;;;;;;;;;;;;;;;10.60;98.84;97113.41;4471331;32;20041;-65
2023/04/14 05:33:38;;;;;;;;;;;;;;;10.59;100.00;97122.22;4469409;32;19980;-64
2023/04/14 05:36:06;;;;;;;;;;;;;;;10.58;100.00;97118.81;4480642;31;19991;-64
2023/04/14 05:38:39;;;;;;;;;;;;;;;10.61;100.00;97128.09;4475209;31;19980;-64
2023/04/14 05:41:07;;;;;;;;;;;;;;;10.58;100.00;97117.97;4473304;31;20707;-64
2023/04/14 05:43:34;;;;;;;;;;;;;;;10.53;100.00;97125.56;4472635;32;19998;-64
2023/04/14 05:46:02;;;;;;;;;;;;;;;10.40;100.00;97132.22;4467228;32;20451;-65
2023/04/14 05:48:31;;;;;;;;;;;;;;;10.53;100.00;97131.59;4465656;32;20003;-65
2023/04/14 05:50:59;;;;;;;;;;;;;;;10.46;100.00;97144.59;4462975;32;20018;-64
2023/04/14 05:53:26;;;;;;;;;;;;;;;10.63;100.00;97141.84;4467382;32;20029;-65
2023/04/14 05:55:56;;;;;;;;;;;;;;;10.51;100.00;97138.00;4453490;32;20456;-65
2023/04/14 05:58:25;;;;;;;;;;;;;;;10.54;100.00;97133.25;4455163;32;20740;-64
2023/04/14 06:00:52;;;;;;;;;;;;;;;10.52;100.00;97126.53;4465223;32;20037;-64
2023/04/14 06:03:20;;;;;;;;;;;;;;;10.67;100.00;97116.91;4465311;32;20832;-64
2023/04/14 06:05:49;;;;;;;;;;;;;;;10.72;100.00;97117.19;4464951;32;19988;-64
2023/04/14 06:08:17;;;;;;;;;;;;;;;10.72;100.00;97116.38;4463450;32;20001;-64
2023/04/14 06:10:45;;;;;;;;;;;;;;;10.73;100.00;97118.81;4464126;32;19984;-64
2023/04/14 06:13:12;;;;;;;;;;;;;;;10.80;100.00;97118.91;4465419;32;20308;-64
2023/04/14 06:15:39;;;;;;;;;;;;;;;10.77;100.00;97122.69;4464349;32;20536;-64
2023/04/14 06:18:07;;;;;;;;;;;;;;;10.84;100.00;97117.56;4463389;32;19990;-66
2023/04/14 06:20:34;;;;;;;;;;;;;;;10.89;100.00;97117.84;4465733;32;20035;-65
2023/04/14 06:23:01;;;;;;;;;;;;;;;10.95;100.00;97116.31;4462294;32;20019;-66
2023/04/14 06:25:29;;;;;;;;;;;;;;;10.92;100.00;97104.37;4459706;32;19988;-66
2023/04/14 06:27:58;;;;;;;;;;;;;;;10.93;100.00;97094.69;4463498;32;20002;-66
2023/04/14 06:30:27;;;;;;;;;;;;;;;10.90;100.00;97101.12;4466456;32;20071;-66
2023/04/14 06:32:55;;;;;;;;;;;;;;;10.97;100.00;97098.59;4466264;32;20013;-66
2023/04/14 06:35:22;;;;;;;;;;;;;;;10.98;100.00;97097.63;4463925;32;19996;-65
2023/04/14 06:38:00;;;;;;;;;;;;;;;10.99;100.00;97080.88;4465139;32;20033;-67
2023/04/14 06:40:27;;;;;;;;;;;;;;;10.95;100.00;97084.88;4463786;32;19979;-66
2023/04/14 06:42:54;;;;;;;;;;;;;;;10.95;100.00;97077.81;4464166;32;20003;-65
2023/04/14 06:45:22;;;;;;;;;;;;;;;10.99;100.00;97079.09;4463264;32;20614;-65
2023/04/14 06:47:49;;;;;;;;;;;;;;;11.09;100.00;97080.63;4461742;32;19988;-65
2023/04/14 06:50:17;;;;;;;;;;;;;;;11.15;100.00;97072.03;4464280;32;19992;-66
2023/04/14 06:52:45;;;;;;;;;;;;;;;11.22;100.00;97078.16;4464358;32;20000;-67
2023/04/14 06:55:12;;;;;;;;;;;;;;;11.30;99.03;97092.97;4463571;32;20004;-66
2023/04/14 06:57:40;;;;;;;;;;;;;;;11.24;99.22;97089.28;4465419;32;20390;-66
2023/04/14 07:00:09;;;;;;;;;;;;;;;11.36;99.55;97097.50;4465238;32;20030;-66
2023/04/14 07:02:37;;;;;;;;;;;;;;;11.36;99.96;97095.66;4462883;32;19988;-66
2023/04/14 07:05:04;;;;;;;;;;;;;;;11.27;98.73;97095.97;4465448;32;20021;-66
2023/04/14 07:07:42;;;;;;;;;;;;;;;11.23;99.46;97090.25;4464646;32;20371;-66
2023/04/14 07:10:09;;;;;;;;;;;;;;;11.23;99.49;97090.25;4467882;32;20040;-66
2023/04/14 07:12:37;;;;;;;;;;;;;;;11.24;100.00;97086.66;4463152;32;19995;-65
2023/04/14 07:15:04;;;;;;;;;;;;;;;11.31;100.00;97094.59;4464928;32;19973;-66
2023/04/14 07:17:34;;;;;;;;;;;;;;;11.36;99.91;97100.09;4463562;32;20695;-67
2023/04/14 07:20:02;;;;;;;;;;;;;;;11.39;100.00;97101.56;4466788;32;19984;-66
2023/04/14 07:22:29;;;;;;;;;;;;;;;11.38;100.00;97090.25;4466490;32;20003;-66
2023/04/14 07:24:56;;;;;;;;;;;;;;;11.35;100.00;97096.69;4466752;32;20062;-65
2023/04/14 07:27:27;;;;;;;;;;;;;;;11.42;100.00;97078.41;4464742;32;20024;-66
2023/04/14 07:29:54;;;;;;;;;;;;;;;11.45;100.00;97088.53;4462022;32;19987;-66
2023/04/14 07:32:21;;;;;;;;;;;;;;;11.32;100.00;97078.69;4464767;32;19976;-67
2023/04/14 07:34:49;;;;;;;;;;;;;;;11.35;100.00;97075.72;4466011;31;20002;-67
2023/04/14 07:37:16;;;;;;;;;;;;;;;11.62;100.00;97075.19;4465351;32;20073;-68
2023/04/14 07:39:43;;;;;;;;;;;;;;;11.72;100.00;97073.87;4465596;32;20033;-68
2023/04/14 07:42:11;;;;;;;;;;;;;;;11.75;100.00;97077.97;4461366;32;19998;-67
2023/04/14 07:44:38;;;;;;;;;;;;;;;11.84;100.00;97074.22;4467508;32;19998;-68
2023/04/14 07:47:05;;;;;;;;;;;;;;;11.90;100.00;97070.03;4463223;32;19996;-66
2023/04/14 07:49:33;;;;;;;;;;;;;;;11.85;100.00;97072.38;4466780;32;19988;-66
2023/04/14 07:52:00;;;;;;;;;;;;;;;11.98;100.00;97074.37;4465732;32;19990;-64
2023/04/14 07:54:27;;;;;;;;;;;;;;;11.99;100.00;97078.59;4465577;32;20000;-64
2023/04/14 07:56:56;;;;;;;;;;;;;;;11.86;100.00;97074.81;4466947;32;20106;-66
2023/04/14 07:59:25;;;;;;;;;;;;;;;12.05;100.00;97077.84;4462284;32;19976;-65
2023/04/14 08:01:52;;;;;;;;;;;;;;;12.07;100.00;97078.50;4466512;32;20084;-66
2023/04/14 08:04:20;;;;;;;;;;;;;;;12.13;100.00;97077.72;4466781;32;20008;-67
2023/04/14 08:06:47;;;;;;;;;;;;;;;12.06;100.00;97069.78;4466814;32;20043;-66
2023/04/14 08:09:14;;;;;;;;;;;;;;;12.02;100.00;97065.94;4467008;32;19991;-67
2023/04/14 08:11:42;;;;;;;;;;;;;;;12.03;100.00;97067.53;4466880;32;20128;-67
2023/04/14 08:14:09;;;;;;;;;;;;;;;12.21;100.00;97071.53;4459891;32;19988;-67
2023/04/14 08:16:36;;;;;;;;;;;;;;;11.93;100.00;97058.34;4466516;32;20321;-67
2023/04/14 08:19:04;;;;;;;;;;;;;;;11.99;100.00;97053.19;4465028;32;20389;-68
2023/04/14 08:21:32;;;;;;;;;;;;;;;12.12;100.00;97060.34;4465863;32;20033;-68
2023/04/14 08:23:59;;;;;;;;;;;;;;;12.06;100.00;97058.47;4466598;32;20025;-67
2023/04/14 08:26:27;;;;;;;;;;;;;;;12.06;100.00;97054.03;4466127;32;19994;-67
2023/04/14 08:28:54;;;;;;;;;;;;;;;11.98;100.00;97045.50;4464010;32;20035;-67
2023/04/14 08:31:22;;;;;;;;;;;;;;;11.95;100.00;97040.62;4464720;32;20024;-66
2023/04/14 08:33:50;;;;;;;;;;;;;;;12.03;100.00;97048.38;4467833;32;19996;-67
2023/04/14 08:36:18;;;;;;;;;;;;;;;12.06;100.00;97046.16;4468710;32;20037;-67
2023/04/14 08:38:46;;;;;;;;;;;;;;;11.94;100.00;97049.50;4466206;32;19994;-65
2023/04/14 08:41:14;;;;;;;;;;;;;;;11.85;100.00;97061.88;4464641;32;20003;-65
2023/04/14 08:43:42;;;;;;;;;;;;;;;11.98;100.00;97067.31;4465246;32;19985;-66
2023/04/14 08:46:12;;;;;;;;;;;;;;;11.92;100.00;97065.41;4461358;32;20049;-66
2023/04/14 08:48:40;;;;;;;;;;;;;;;11.82;100.00;97075.38;4467433;32;20601;-65
2023/04/14 08:51:27;;;;;;;;;;;;;;;11.85;100.00;97072.38;4464862;32;19994;-65
2023/04/14 08:53:55;;;;;;;;;;;;;;;11.86;100.00;97072.19;4460823;32;19999;-65
2023/04/14 08:56:23;;;;;;;;;;;;;;;11.66;100.00;97079.88;4465046;32;20032;-65
2023/04/14 08:58:50;;;;;;;;;;;;;;;11.88;100.00;97072.84;4461884;32;21216;-65
2023/04/14 09:01:18;;;;;;;;;;;;;;;11.72;100.00;97075.72;4460980;32;19980;-65
2023/04/14 09:03:46;;;;;;;;;;;;;;;11.58;100.00;97069.47;4466825;32;20389;-66
2023/04/14 09:06:13;;;;;;;;;;;;;;;11.81;100.00;97076.38;4463268;32;20027;-66
2023/04/14 09:08:41;;;;;;;;;;;;;;;11.58;100.00;97079.97;4464866;31;20035;-66
2023/04/14 09:11:08;;;;;;;;;;;;;;;11.56;100.00;97074.09;4461817;32;19984;-66
2023/04/14 09:13:35;;;;;;;;;;;;;;;11.49;100.00;97081.91;4461790;32;20040;-69
2023/04/14 09:16:03;;;;;;;;;;;;;;;11.25;100.00;97084.84;4458422;32;20000;-67
2023/04/14 09:18:30;;;;;;;;;;;;;;;11.43;100.00;97087.06;4462952;32;20002;-67
2023/04/14 09:21:03;;;;;;;;;;;;;;;11.21;100.00;97097.50;4463724;32;20074;-65
2023/04/14 09:23:50;;;;;;;;;;;;;;;11.22;100.00;97090.44;4465163;32;19988;-67
2023/04/14 09:26:18;;;;;;;;;;;;;;;11.19;100.00;97096.87;4463732;32;20032;-69
2023/04/14 09:28:46;;;;;;;;;;;;;;;11.25;100.00;97098.78;4463802;32;20047;-68
2023/04/14 09:31:13;;;;;;;;;;;;;;;11.21;100.00;97101.94;4467780;32;20010;-68
2023/04/14 09:33:46;;;;;;;;;;;;;;;11.24;100.00;97094.50;4461388;31;19991;-68
2023/04/14 09:36:21;;;;;;;;;;;;;;;11.26;100.00;97097.75;4461577;32;20021;-66
2023/04/14 09:38:49;;;;;;;;;;;;;;;11.33;100.00;97090.00;4461490;32;20009;-66
2023/04/14 09:41:17;;;;;;;;;;;;;;;11.27;100.00;97094.16;4464845;32;20004;-68
2023/04/14 09:43:45;;;;;;;;;;;;;;;11.23;100.00;97100.75;4461937;32;20326;-67
2023/04/14 09:46:15;;;;;;;;;;;;;;;10.97;100.00;97093.34;4467199;32;20028;-65
2023/04/14 09:48:50;;;;;;;;;;;;;;;11.09;100.00;97088.47;4464148;32;19977;-66
2023/04/14 09:51:22;;;;;;;;;;;;;;;11.02;100.00;97091.00;4463062;32;20346;-66
2023/04/14 09:53:51;;;;;;;;;;;;;;;11.06;100.00;97087.03;4460667;32;20014;-67
2023/04/14 09:56:20;;;;;;;;;;;;;;;11.29;100.00;97083.47;4464951;32;19984;-67
2023/04/14 09:58:47;;;;;;;;;;;;;;;11.32;100.00;97088.34;4464669;32;20394;-67
2023/04/14 10:01:16;;;;;;;;;;;;;;;11.25;100.00;97090.06;4460811;32;20027;-68
2023/04/14 10:03:45;;;;;;;;;;;;;;;11.30;100.00;97091.16;4469146;31;21504;-67
2023/04/14 10:06:12;;;;;;;;;;;;;;;11.14;100.00;97105.28;4467418;31;20001;-67
2023/04/14 10:08:40;;;;;;;;;;;;;;;11.09;100.00;97099.75;4467596;32;19976;-67
2023/04/14 10:11:15;;;;;;;;;;;;;;;10.91;100.00;97102.75;4468527;32;19988;-66
2023/04/14 10:13:47;;;;;;;;;;;;;;;11.03;100.00;97100.50;4468720;32;20383;-66
2023/04/14 10:16:15;;;;;;;;;;;;;;;10.92;100.00;97098.34;4465553;32;20000;-68
2023/04/14 10:18:42;;;;;;;;;;;;;;;10.97;100.00;97094.16;4475139;32;20356;-66
2023/04/14 10:21:10;;;;;;;;;;;;;;;10.99;100.00;97092.19;4476536;31;20001;-66
2023/04/14 10:23:38;;;;;;;;;;;;;;;10.85;100.00;97094.81;4475336;32;19988;-67
2023/04/14 10:26:06;;;;;;;;;;;;;;;11.01;100.00;97100.69;4468060;31;19980;-66
2023/04/14 10:28:34;;;;;;;;;;;;;;;11.01;100.00;97098.06;4462285;32;20009;-65
2023/04/14 10:31:07;;;;;;;;;;;;;;;11.01;100.00;97099.88;4468498;32;19983;-67
2023/04/14 10:33:37;;;;;;;;;;;;;;;11.07;100.00;97101.75;4466700;32;20033;-67
2023/04/14 10:36:05;;;;;;;;;;;;;;;11.05;100.00;97103.72;4471700;32;20011;-64
2023/04/14 10:38:36;;;;;;;;;;;;;;;10.96;100.00;97115.31;4474082;32;19988;-66
2023/04/14 10:41:05;;;;;;;;;;;;;;;10.86;100.00;97101.69;4464551;32;19989;-67
2023/04/14 10:43:34;;;;;;;;;;;;;;;10.84;100.00;97114.97;4465948;31;20446;-66
2023/04/14 10:46:01;;;;;;;;;;;;;;;10.90;100.00;97119.47;4462823;32;19976;-66
2023/04/14 10:48:33;;;;;;;;;;;;;;;10.97;100.00;97116.94;4461887;32;19996;-66
2023/04/14 10:51:04;;;;;;;;;;;;;;;10.94;100.00;97115.47;4465136;32;20447;-66
2023/04/14 10:53:36;;;;;;;;;;;;;;;10.91;100.00;97112.41;4464649;32;20051;-66
2023/04/14 10:56:04;;;;;;;;;;;;;;;10.87;100.00;97119.00;4464210;32;20000;-65
2023/04/14 10:58:33;;;;;;;;;;;;;;;10.88;100.00;97116.19;4465557;32;19988;-66
2023/04/14 11:01:04;;;;;;;;;;;;;;;10.70;100.00;97116.53;4468973;32;19984;-66
2023/04/14 11:03:31;;;;;;;;;;;;;;;10.65;100.00;97114.47;4462344;32;20611;-65
2023/04/14 11:05:59;;;;;;;;;;;;;;;10.71;100.00;97106.91;4464093;32;20010;-66
2023/04/14 11:08:27;;;;;;;;;;;;;;;10.77;100.00;97114.03;4460102;32;20040;-66
2023/04/14 11:11:01;;;;;;;;;;;;;;;10.87;100.00;97108.53;4455118;32;20043;-66
2023/04/14 11:13:29;;;;;;;;;;;;;;;10.67;100.00;97105.63;4462240;32;20103;-67
2023/04/14 11:16:00;;;;;;;;;;;;;;;10.68;100.00;97108.06;4463849;32;20000;-66
2023/04/14 11:18:31;;;;;;;;;;;;;;;10.71;100.00;97106.91;4460570;32;20037;-65
2023/04/14 11:21:04;;;;;;;;;;;;;;;10.72;100.00;97106.72;4458965;32;19999;-64
2023/04/14 11:23:32;;;;;;;;;;;;;;;10.74;100.00;97096.06;4458224;32;20336;-66
2023/04/14 11:26:00;;;;;;;;;;;;;;;10.65;100.00;97100.56;4461974;32;20056;-65
2023/04/14 11:28:31;;;;;;;;;;;;;;;10.71;100.00;97099.03;4462772;32;21372;-66
2023/04/14 11:31:02;;;;;;;;;;;;;;;10.63;100.00;97097.31;4460672;32;20064;-66
2023/04/14 11:33:30;;;;;;;;;;;;;;;10.56;100.00;97099.03;4460558;32;20055;-65
2023/04/14 11:35:57;;;;;;;;;;;;;;;10.51;100.00;97103.97;4462126;32;19988;-65
2023/04/14 11:38:25;;;;;;;;;;;;;;;10.47;100.00;97101.69;4460565;32;20031;-66
2023/04/14 11:40:53;;;;;;;;;;;;;;;10.42;100.00;97109.28;4459416;32;20050;-66
2023/04/14 11:43:20;;;;;;;;;;;;;;;10.52;100.00;97108.22;4458197;32;20318;-65
2023/04/14 11:45:50;;;;;;;;;;;;;;;10.52;100.00;97105.59;4464592;32;20000;-66
2023/04/14 11:48:18;;;;;;;;;;;;;;;10.46;100.00;97107.94;4460954;32;20029;-66
2023/04/14 11:50:46;;;;;;;;;;;;;;;10.53;100.00;97109.84;4463021;32;19999;-66
2023/04/14 11:53:17;;;;;;;;;;;;;;;10.51;100.00;97114.44;4463131;32;20036;-67
2023/04/14 11:55:46;;;;;;;;;;;;;;;10.48;100.00;97121.66;4463963;32;20002;-67
2023/04/14 11:58:16;;;;;;;;;;;;;;;10.34;100.00;97117.22;4463735;32;19997;-67
2023/04/14 12:00:44;;;;;;;;;;;;;;;10.32;100.00;97110.50;4461865;32;20359;-66
2023/04/14 12:03:11;;;;;;;;;;;;;;;10.27;100.00;97100.56;4460852;32;20003;-67
2023/04/14 12:05:39;;;;;;;;;;;;;;;10.28;100.00;97094.34;4460962;32;20014;-66
2023/04/14 12:08:07;;;;;;;;;;;;;;;10.33;100.00;97096.44;4468454;31;20021;-66
2023/04/14 12:10:40;;;;;;;;;;;;;;;10.37;100.00;97095.91;4463285;32;19995;-66
2023/04/14 12:13:08;;;;;;;;;;;;;;;10.36;100.00;97099.53;4462950;32;19984;-66
2023/04/14 12:15:36;;;;;;;;;;;;;;;10.34;100.00;97100.69;4462691;32;19980;-67
2023/04/14 12:18:06;;;;;;;;;;;;;;;10.35;100.00;97097.87;4466008;32;20110;-67
2023/04/14 12:20:59;;;;;;;;;;;;;;;10.29;100.00;97096.78;4463834;32;19996;-66
2023/04/14 12:23:27;;;;;;;;;;;;;;;10.18;100.00;97101.62;4463830;32;19995;-66
2023/04/14 12:25:54;;;;;;;;;;;;;;;10.16;100.00;97098.34;4464978;32;19995;-66
2023/04/14 12:28:28;;;;;;;;;;;;;;;10.18;100.00;97106.84;4450362;32;19972;-66
2023/04/14 12:30:58;;;;;;;;;;;;;;;10.13;100.00;97110.78;4467490;32;19996;-66
2023/04/14 12:33:27;;;;;;;;;;;;;;;10.15;100.00;97104.59;4469176;32;19985;-65
2023/04/14 12:36:04;;;;;;;;;;;;;;;10.11;100.00;97110.16;4468205;32;20375;-66
2023/04/14 12:38:33;;;;;;;;;;;;;;;10.07;100.00;97114.13;4472859;32;19988;-66
2023/04/14 12:41:01;;;;;;;;;;;;;;;10.09;100.00;97117.34;4481620;31;20075;-65
2023/04/14 12:43:29;;;;;;;;;;;;;;;9.98;100.00;97127.41;4475130;32;19991;-66
2023/04/14 12:45:57;;;;;;;;;;;;;;;9.96;100.00;97127.59;4474918;31;20024;-66
2023/04/14 12:48:42;;;;;;;;;;;;;;;9.92;100.00;97121.09;4470982;32;20050;-67